createdAt,value
2019-03-26T00:01:49.660Z,5.42
2019-03-26T00:04:18.178Z,6.40
2019-03-26T00:06:46.675Z,6.47
2019-03-26T00:09:15.227Z,5.80
2019-03-26T00:11:43.668Z,5.67
2019-03-26T00:14:12.199Z,4.83
2019-03-26T00:16:40.710Z,11.05
2019-03-26T00:19:09.269Z,5.75
2019-03-26T00:21:37.790Z,6.40
2019-03-26T00:24:06.303Z,7.35
2019-03-26T00:26:34.746Z,6.03
2019-03-26T00:29:03.435Z,7.62
2019-03-26T00:31:31.867Z,5.87
2019-03-26T00:34:00.409Z,6.42
2019-03-26T00:36:28.877Z,9.00
2019-03-26T00:38:57.323Z,7.00
2019-03-26T00:41:25.877Z,6.37
2019-03-26T00:43:54.408Z,6.80
2019-03-26T00:46:22.920Z,5.45
2019-03-26T00:48:51.489Z,6.37
2019-03-26T00:51:19.946Z,4.40
2019-03-26T00:53:48.384Z,5.22
2019-03-26T00:56:16.842Z,4.25
2019-03-26T00:58:45.510Z,6.83
2019-03-26T01:01:14.207Z,4.90
2019-03-26T01:03:43.020Z,4.92
2019-03-26T01:06:11.561Z,5.30
2019-03-26T01:08:40.020Z,4.72
2019-03-26T01:11:08.511Z,7.65
2019-03-26T01:13:37.091Z,4.47
2019-03-26T01:16:05.625Z,4.33
2019-03-26T01:18:34.064Z,4.55
2019-03-26T01:21:02.666Z,5.05
2019-03-26T01:23:31.275Z,8.38
2019-03-26T01:25:59.711Z,9.43
2019-03-26T01:28:28.176Z,6.72
2019-03-26T01:30:56.674Z,8.33
2019-03-26T01:33:25.220Z,8.43
2019-03-26T01:35:53.647Z,9.60
2019-03-26T01:38:22.126Z,8.15
2019-03-26T01:40:50.583Z,6.00
2019-03-26T01:43:19.211Z,6.95
2019-03-26T01:45:47.726Z,6.55
2019-03-26T01:48:16.211Z,9.55
2019-03-26T01:50:44.706Z,8.98
2019-03-26T01:53:13.182Z,8.40
2019-03-26T01:55:41.617Z,8.30
2019-03-26T01:58:10.079Z,9.05
2019-03-26T02:00:38.855Z,8.63
2019-03-26T02:03:07.392Z,9.70
2019-03-26T02:05:35.888Z,10.60
2019-03-26T02:08:04.483Z,10.28
2019-03-26T02:10:32.973Z,8.25
2019-03-26T02:13:01.421Z,8.88
2019-03-26T02:15:32.937Z,8.38
2019-03-26T02:18:01.898Z,12.15
2019-03-26T02:20:30.824Z,11.85
2019-03-26T02:22:59.550Z,7.78
2019-03-26T02:25:28.090Z,11.83
2019-03-26T02:27:56.531Z,8.70
2019-03-26T02:30:25.019Z,9.05
2019-03-26T02:32:53.590Z,7.75
2019-03-26T02:35:22.074Z,10.40
2019-03-26T02:37:50.510Z,10.40
2019-03-26T02:40:19.264Z,12.63
2019-03-26T02:42:47.794Z,11.95
2019-03-26T02:45:16.317Z,11.10
2019-03-26T02:47:45.019Z,11.38
2019-03-26T02:50:13.899Z,10.75
2019-03-26T02:52:42.341Z,10.75
2019-03-26T02:55:10.960Z,14.33
2019-03-26T02:57:39.399Z,13.55
2019-03-26T03:00:09.365Z,11.38
2019-03-26T03:02:37.865Z,9.03
2019-03-26T03:05:06.538Z,10.55
2019-03-26T03:07:35.132Z,14.30
2019-03-26T03:10:07.342Z,13.25
2019-03-26T03:12:35.851Z,17.73
2019-03-26T03:15:06.178Z,20.08
2019-03-26T03:17:34.689Z,16.27
2019-03-26T03:20:03.878Z,9.45
2019-03-26T03:22:32.410Z,9.48
2019-03-26T03:25:00.864Z,11.53
2019-03-26T03:27:29.330Z,13.88
2019-03-26T03:29:57.844Z,14.10
2019-03-26T03:32:26.372Z,12.68
2019-03-26T03:34:54.838Z,15.75
2019-03-26T03:37:23.299Z,13.78
2019-03-26T03:39:51.811Z,11.73
2019-03-26T03:42:20.373Z,13.58
2019-03-26T03:44:48.786Z,12.78
2019-03-26T03:47:18.879Z,46.13
2019-03-26T03:49:47.760Z,25.10
2019-03-26T03:52:17.670Z,29.15
2019-03-26T03:54:47.999Z,29.35
2019-03-26T03:57:18.177Z,19.77
2019-03-26T03:59:47.440Z,18.40
2019-03-26T04:02:16.352Z,18.15
2019-03-26T04:04:44.931Z,14.03
2019-03-26T04:07:13.519Z,16.62
2019-03-26T04:09:41.962Z,10.80
2019-03-26T04:12:10.499Z,16.15
2019-03-26T04:14:38.946Z,9.98
2019-03-26T04:17:07.566Z,11.03
2019-03-26T04:19:36.005Z,11.90
2019-03-26T04:22:04.431Z,11.78
2019-03-26T04:24:32.901Z,11.90
2019-03-26T04:27:01.509Z,13.20
2019-03-26T04:29:30.037Z,9.98
2019-03-26T04:31:58.621Z,12.75
2019-03-26T04:34:27.141Z,6.83
2019-03-26T04:36:55.584Z,11.22
2019-03-26T04:39:24.088Z,8.98
2019-03-26T04:41:52.517Z,11.03
2019-03-26T04:44:21.049Z,10.18
2019-03-26T04:46:49.473Z,9.20
2019-03-26T04:49:17.946Z,8.60
2019-03-26T04:51:46.399Z,10.80
2019-03-26T04:54:14.905Z,10.53
2019-03-26T04:56:43.459Z,10.18
2019-03-26T04:59:11.963Z,12.73
2019-03-26T05:01:40.381Z,10.55
2019-03-26T05:04:08.855Z,10.45
2019-03-26T05:06:38.407Z,13.93
2019-03-26T05:09:07.312Z,7.67
2019-03-26T05:11:35.871Z,10.08
2019-03-26T05:14:04.313Z,14.55
2019-03-26T05:16:32.978Z,7.42
2019-03-26T05:19:01.485Z,10.55
2019-03-26T05:21:30.045Z,11.90
2019-03-26T05:23:58.483Z,9.88
2019-03-26T05:26:26.983Z,10.18
2019-03-26T05:28:55.419Z,10.93
2019-03-26T05:31:24.230Z,8.80
2019-03-26T05:33:52.814Z,11.75
2019-03-26T05:36:21.370Z,9.43
2019-03-26T05:38:49.810Z,8.25
2019-03-26T05:41:18.288Z,11.35
2019-03-26T05:43:46.871Z,9.15
2019-03-26T05:46:15.325Z,9.80
2019-03-26T05:48:43.772Z,10.23
2019-03-26T05:51:12.226Z,12.23
2019-03-26T05:53:40.736Z,14.28
2019-03-26T05:56:09.208Z,12.35
2019-03-26T05:58:37.646Z,12.50
2019-03-26T06:01:06.123Z,14.78
2019-03-26T06:03:34.559Z,12.68
2019-03-26T06:06:03.231Z,16.25
2019-03-26T06:08:31.927Z,13.68
2019-03-26T06:11:00.470Z,21.35
2019-03-26T06:13:28.919Z,13.50
2019-03-26T06:15:57.411Z,14.38
2019-03-26T06:18:26.057Z,15.23
2019-03-26T06:20:54.593Z,12.37
2019-03-26T06:23:23.053Z,10.70
2019-03-26T06:25:51.690Z,13.58
2019-03-26T06:28:20.248Z,11.68
2019-03-26T06:30:48.766Z,9.80
2019-03-26T06:33:17.353Z,12.43
2019-03-26T06:35:45.817Z,13.25
2019-03-26T06:38:14.386Z,9.53
2019-03-26T06:40:42.988Z,12.10
2019-03-26T06:43:11.601Z,14.05
2019-03-26T06:45:40.055Z,12.73
2019-03-26T06:48:08.617Z,12.07
2019-03-26T06:50:37.434Z,12.10
2019-03-26T06:53:05.968Z,11.97
2019-03-26T06:55:34.418Z,13.62
2019-03-26T06:58:03.524Z,12.15
2019-03-26T07:00:33.610Z,9.83
2019-03-26T07:03:06.521Z,10.32
2019-03-26T07:05:35.057Z,12.53
2019-03-26T07:08:03.649Z,10.28
2019-03-26T07:10:32.254Z,13.00
2019-03-26T07:13:00.850Z,14.95
2019-03-26T07:15:29.591Z,12.70
2019-03-26T07:17:58.177Z,19.95
2019-03-26T07:20:26.731Z,12.13
2019-03-26T07:22:55.310Z,10.13
2019-03-26T07:25:23.909Z,13.68
2019-03-26T07:27:52.355Z,13.95
2019-03-26T07:30:38.474Z,11.30
2019-03-26T07:33:07.639Z,9.18
2019-03-26T07:35:36.221Z,14.38
2019-03-26T07:38:05.007Z,14.55
2019-03-26T07:40:33.525Z,16.48
2019-03-26T07:43:02.051Z,9.28
2019-03-26T07:45:30.582Z,12.58
2019-03-26T07:47:59.027Z,10.30
2019-03-26T07:50:27.638Z,14.55
2019-03-26T07:52:56.155Z,12.68
2019-03-26T07:55:24.625Z,8.80
2019-03-26T07:57:53.162Z,9.08
2019-03-26T08:00:24.686Z,10.58
2019-03-26T08:02:53.223Z,8.58
2019-03-26T08:05:29.511Z,11.63
2019-03-26T08:07:58.340Z,9.23
2019-03-26T08:10:22.231Z,9.90
2019-03-26T08:12:50.778Z,9.15
2019-03-26T08:15:20.367Z,11.50
2019-03-26T08:17:48.963Z,14.58
2019-03-26T08:20:17.487Z,13.65
2019-03-26T08:22:46.015Z,12.35
2019-03-26T08:25:14.660Z,12.28
2019-03-26T08:27:43.246Z,14.40
2019-03-26T08:30:12.075Z,11.05
2019-03-26T08:32:40.559Z,10.35
2019-03-26T08:35:09.377Z,12.37
2019-03-26T08:37:38.034Z,11.75
2019-03-26T08:40:08.240Z,16.70
2019-03-26T08:42:36.883Z,7.72
2019-03-26T08:45:07.468Z,10.48
2019-03-26T08:47:36.371Z,16.30
2019-03-26T08:50:06.831Z,13.45
2019-03-26T08:52:35.310Z,14.00
2019-03-26T08:55:05.299Z,14.25
2019-03-26T08:57:33.765Z,14.60
2019-03-26T09:00:02.224Z,10.48
2019-03-26T09:02:30.678Z,13.55
2019-03-26T09:04:59.206Z,12.20
2019-03-26T09:07:27.738Z,10.08
2019-03-26T09:09:56.483Z,12.65
2019-03-26T09:12:25.014Z,9.63
2019-03-26T09:14:53.497Z,10.93
2019-03-26T09:17:23.670Z,9.50
2019-03-26T09:19:52.397Z,11.22
2019-03-26T09:22:21.029Z,11.05
2019-03-26T09:24:49.486Z,8.13
2019-03-26T09:27:18.138Z,15.28
2019-03-26T09:29:46.614Z,13.65
2019-03-26T09:32:15.068Z,9.80
2019-03-26T09:34:43.602Z,9.63
2019-03-26T09:37:12.118Z,6.72
2019-03-26T09:39:40.767Z,7.65
2019-03-26T09:42:09.283Z,9.10
2019-03-26T09:44:37.915Z,7.58
2019-03-26T09:47:16.048Z,8.13
2019-03-26T09:49:36.647Z,4.25
2019-03-26T09:52:05.191Z,8.10
2019-03-26T09:54:33.788Z,10.55
2019-03-26T09:57:02.305Z,9.58
2019-03-26T09:59:30.759Z,6.65
2019-03-26T10:01:59.219Z,9.98
2019-03-26T10:04:27.752Z,7.15
2019-03-26T10:06:56.337Z,9.55
2019-03-26T10:09:24.776Z,6.45
2019-03-26T10:11:53.351Z,7.83
2019-03-26T10:14:21.951Z,6.95
2019-03-26T10:16:50.425Z,7.20
2019-03-26T10:19:18.873Z,7.25
2019-03-26T10:21:47.438Z,7.37
2019-03-26T10:24:15.967Z,8.10
2019-03-26T10:26:44.433Z,9.95
2019-03-26T10:29:24.171Z,6.05
2019-03-26T10:31:43.141Z,8.28
2019-03-26T10:34:11.736Z,10.35
2019-03-26T10:36:41.705Z,8.48
2019-03-26T10:39:10.385Z,11.28
2019-03-26T10:41:38.824Z,8.08
2019-03-26T10:44:07.340Z,11.20
2019-03-26T10:46:35.831Z,7.72
2019-03-26T10:49:04.455Z,7.65
2019-03-26T10:51:33.881Z,7.90
2019-03-26T10:54:02.439Z,8.08
2019-03-26T10:56:32.652Z,5.12
2019-03-26T10:59:04.037Z,9.40
2019-03-26T11:01:31.570Z,6.42
2019-03-26T11:04:00.147Z,6.47
2019-03-26T11:06:28.629Z,8.43
2019-03-26T11:09:01.064Z,9.45
2019-03-26T11:11:29.528Z,7.10
2019-03-26T11:13:58.868Z,9.78
2019-03-26T11:16:27.768Z,8.43
2019-03-26T11:18:56.230Z,9.18
2019-03-26T11:21:24.718Z,8.90
2019-03-26T11:23:53.547Z,6.12
2019-03-26T11:26:22.071Z,9.70
2019-03-26T11:28:50.714Z,7.45
2019-03-26T11:31:19.236Z,8.70
2019-03-26T11:33:47.699Z,9.38
2019-03-26T11:36:16.365Z,9.78
2019-03-26T11:38:44.999Z,8.05
2019-03-26T11:41:13.510Z,11.40
2019-03-26T11:43:42.128Z,8.68
2019-03-26T11:46:10.714Z,9.63
2019-03-26T11:48:39.180Z,8.15
2019-03-26T11:51:07.762Z,9.50
2019-03-26T11:53:36.381Z,9.78
2019-03-26T11:56:04.901Z,8.33
2019-03-26T11:58:33.394Z,12.95
2019-03-26T12:01:01.866Z,10.60
2019-03-26T12:03:30.423Z,6.95
2019-03-26T12:05:58.951Z,6.28
2019-03-26T12:08:27.486Z,5.95
2019-03-26T12:10:56.006Z,7.33
2019-03-26T12:13:24.471Z,16.02
2019-03-26T12:15:52.996Z,10.25
2019-03-26T12:18:21.652Z,10.18
2019-03-26T12:20:50.217Z,8.23
2019-03-26T12:23:18.962Z,14.35
2019-03-26T12:25:47.524Z,9.75
2019-03-26T12:28:15.974Z,5.95
2019-03-26T12:30:44.653Z,6.67
2019-03-26T12:33:13.209Z,4.95
2019-03-26T12:35:41.651Z,6.17
2019-03-26T12:38:18.238Z,9.25
2019-03-26T12:40:47.151Z,8.13
2019-03-26T12:43:16.888Z,9.93
2019-03-26T12:45:45.505Z,12.43
2019-03-26T12:48:14.108Z,11.90
2019-03-26T12:50:42.731Z,6.85
2019-03-26T12:53:12.723Z,6.03
2019-03-26T12:55:41.488Z,6.83
2019-03-26T12:58:09.928Z,8.73
2019-03-26T13:00:38.509Z,7.50
2019-03-26T13:03:06.995Z,7.15
2019-03-26T13:05:35.623Z,7.45
2019-03-26T13:08:04.160Z,9.53
2019-03-26T13:10:32.664Z,7.75
2019-03-26T13:13:01.139Z,10.50
2019-03-26T13:15:29.594Z,10.15
2019-03-26T13:17:58.429Z,13.32
2019-03-26T13:20:26.893Z,11.78
2019-03-26T13:22:55.515Z,11.65
2019-03-26T13:25:23.973Z,7.35
2019-03-26T13:27:52.580Z,13.93
2019-03-26T13:30:21.540Z,9.68
2019-03-26T13:32:50.362Z,7.80
2019-03-26T13:35:19.002Z,9.50
2019-03-26T13:37:47.546Z,10.78
2019-03-26T13:40:26.484Z,8.35
2019-03-26T13:42:46.669Z,10.82
2019-03-26T13:45:16.078Z,9.95
2019-03-26T13:47:47.639Z,8.70
2019-03-26T13:50:16.512Z,12.85
2019-03-26T13:52:44.987Z,7.55
2019-03-26T13:55:13.787Z,9.78
2019-03-26T13:57:42.251Z,7.53
2019-03-26T14:00:11.671Z,9.03
2019-03-26T14:02:40.183Z,9.25
2019-03-26T14:05:23.275Z,8.55
2019-03-26T14:07:51.866Z,7.97
2019-03-26T14:10:20.437Z,8.30
2019-03-26T14:12:48.953Z,9.85
2019-03-26T14:15:17.506Z,10.13
2019-03-26T14:17:46.070Z,7.12
2019-03-26T14:20:15.285Z,7.60
2019-03-26T14:22:43.803Z,6.45
2019-03-26T14:25:12.419Z,8.43
2019-03-26T14:27:41.005Z,9.05
2019-03-26T14:30:14.645Z,10.95
2019-03-26T14:32:46.353Z,8.75
2019-03-26T14:35:14.979Z,7.25
2019-03-26T14:37:51.164Z,10.58
2019-03-26T14:40:14.027Z,9.37
2019-03-26T14:42:42.540Z,11.75
2019-03-26T14:45:11.382Z,9.93
2019-03-26T14:47:39.954Z,10.28
2019-03-26T14:50:09.140Z,12.35
2019-03-26T14:52:37.589Z,10.25
2019-03-26T14:55:07.918Z,11.97
2019-03-26T14:57:36.630Z,13.10
2019-03-26T15:00:07.465Z,10.38
2019-03-26T15:02:35.967Z,13.83
2019-03-26T15:05:06.375Z,13.10
2019-03-26T15:07:34.861Z,12.65
2019-03-26T15:10:05.373Z,8.10
2019-03-26T15:12:33.937Z,10.80
2019-03-26T15:15:02.455Z,10.32
2019-03-26T15:17:30.945Z,14.47
2019-03-26T15:19:59.405Z,9.05
2019-03-26T15:22:27.906Z,13.53
2019-03-26T15:24:59.363Z,8.98
2019-03-26T15:27:26.630Z,10.27
2019-03-26T15:29:55.170Z,17.27
2019-03-26T15:32:23.733Z,14.78
2019-03-26T15:34:52.311Z,15.93
2019-03-26T15:37:20.755Z,16.77
2019-03-26T15:39:49.294Z,14.55
2019-03-26T15:42:17.774Z,20.62
2019-03-26T15:44:46.299Z,13.15
2019-03-26T15:47:14.791Z,18.50
2019-03-26T15:49:43.238Z,18.23
2019-03-26T15:52:11.729Z,21.90
2019-03-26T15:54:40.238Z,18.12
2019-03-26T15:57:08.715Z,17.55
2019-03-26T15:59:37.174Z,19.82
2019-03-26T16:02:05.643Z,30.27
2019-03-26T16:04:34.166Z,14.63
2019-03-26T16:07:02.609Z,17.10
2019-03-26T16:09:31.116Z,15.18
2019-03-26T16:11:59.617Z,17.20
2019-03-26T16:14:28.367Z,17.00
2019-03-26T16:16:57.171Z,15.48
2019-03-26T16:19:32.039Z,17.07
2019-03-26T16:21:55.968Z,12.33
2019-03-26T16:24:24.479Z,15.63
2019-03-26T16:26:53.021Z,16.15
2019-03-26T16:29:21.587Z,14.80
2019-03-26T16:31:50.081Z,13.83
2019-03-26T16:34:18.620Z,23.73
2019-03-26T16:36:58.886Z,14.13
2019-03-26T16:39:17.610Z,12.13
2019-03-26T16:41:49.289Z,11.40
2019-03-26T16:44:16.255Z,10.30
2019-03-26T16:46:44.846Z,10.58
2019-03-26T16:49:13.399Z,9.53
2019-03-26T16:51:41.840Z,13.83
2019-03-26T16:54:10.339Z,9.00
2019-03-26T16:56:38.864Z,10.00
2019-03-26T16:59:07.474Z,9.73
2019-03-26T17:01:36.028Z,9.25
2019-03-26T17:04:04.748Z,8.80
2019-03-26T17:06:33.250Z,9.15
2019-03-26T17:09:01.880Z,11.05
2019-03-26T17:11:30.431Z,11.10
2019-03-26T17:13:58.881Z,10.70
2019-03-26T17:16:27.434Z,7.85
2019-03-26T17:18:55.902Z,10.72
2019-03-26T17:21:24.556Z,11.08
2019-03-26T17:23:53.009Z,13.50
2019-03-26T17:26:22.881Z,10.53
2019-03-26T17:28:51.414Z,11.65
2019-03-26T17:31:19.901Z,10.70
2019-03-26T17:33:48.366Z,11.55
2019-03-26T17:36:16.926Z,14.65
2019-03-26T17:38:45.386Z,12.07
2019-03-26T17:41:13.895Z,8.05
2019-03-26T17:43:42.346Z,19.45
2019-03-26T17:46:10.946Z,17.52
2019-03-26T17:48:39.435Z,17.60
2019-03-26T17:51:07.918Z,17.52
2019-03-26T17:53:36.599Z,15.90
2019-03-26T17:56:05.273Z,15.13
2019-03-26T17:58:33.801Z,11.15
2019-03-26T18:01:02.367Z,21.75
2019-03-26T18:03:31.390Z,11.63
2019-03-26T18:05:59.950Z,19.05
2019-03-26T18:08:28.394Z,17.12
2019-03-26T18:10:57.321Z,15.15
2019-03-26T18:13:25.736Z,13.83
2019-03-26T18:15:54.283Z,15.28
2019-03-26T18:18:22.848Z,11.60
2019-03-26T18:20:51.418Z,9.70
2019-03-26T18:23:19.889Z,14.10
2019-03-26T18:25:48.416Z,13.80
2019-03-26T18:28:16.982Z,12.60
2019-03-26T18:30:45.739Z,17.42
2019-03-26T18:33:14.309Z,13.22
2019-03-26T18:35:44.176Z,23.38
2019-03-26T18:38:14.956Z,23.45
2019-03-26T18:40:43.767Z,15.83
2019-03-26T18:43:12.298Z,13.93
2019-03-26T18:45:40.823Z,14.00
2019-03-26T18:48:09.631Z,10.08
2019-03-26T18:50:38.164Z,11.55
2019-03-26T18:53:06.828Z,16.10
2019-03-26T18:55:35.495Z,11.48
2019-03-26T18:58:04.365Z,13.75
2019-03-26T19:00:37.742Z,9.75
2019-03-26T19:03:07.305Z,11.83
2019-03-26T19:05:35.736Z,12.13
2019-03-26T19:08:07.054Z,10.40
2019-03-26T19:10:36.692Z,10.90
2019-03-26T19:13:18.846Z,11.85
2019-03-26T19:15:35.800Z,15.70
2019-03-26T19:18:04.437Z,9.70
2019-03-26T19:20:33.250Z,16.17
2019-03-26T19:23:01.820Z,9.30
2019-03-26T19:25:30.394Z,10.63
2019-03-26T19:27:59.047Z,11.12
2019-03-26T19:30:27.668Z,10.63
2019-03-26T19:32:57.638Z,12.35
2019-03-26T19:35:26.690Z,12.45
2019-03-26T19:37:55.279Z,10.50
2019-03-26T19:40:23.792Z,9.60
2019-03-26T19:42:52.268Z,12.20
2019-03-26T19:45:21.332Z,9.90
2019-03-26T19:47:49.885Z,15.03
2019-03-26T19:50:18.638Z,13.13
2019-03-26T19:52:47.198Z,15.18
2019-03-26T19:55:15.750Z,10.82
2019-03-26T19:57:44.327Z,9.98
2019-03-26T20:00:14.821Z,11.53
2019-03-26T20:02:43.588Z,16.30
2019-03-26T20:05:12.491Z,11.78
2019-03-26T20:07:41.026Z,12.25
2019-03-26T20:10:11.593Z,11.95
2019-03-26T20:12:40.221Z,12.58
2019-03-26T20:15:09.992Z,9.80
2019-03-26T20:17:38.534Z,14.43
2019-03-26T20:20:08.552Z,15.75
2019-03-26T20:22:37.408Z,13.50
2019-03-26T20:25:08.683Z,11.43
2019-03-26T20:30:06.968Z,14.68
2019-03-26T20:32:35.611Z,16.30
2019-03-26T20:35:07.080Z,13.05
2019-03-26T20:37:35.707Z,18.42
2019-03-26T20:40:07.397Z,16.90
2019-03-26T20:42:36.031Z,18.00
2019-03-26T20:45:09.964Z,18.40
2019-03-26T20:47:38.946Z,21.75
2019-03-26T20:50:08.489Z,17.30
2019-03-26T20:52:37.123Z,16.02
2019-03-26T20:55:07.851Z,21.65
2019-03-26T20:57:36.572Z,14.38
2019-03-26T21:00:08.176Z,21.62
2019-03-26T21:02:36.789Z,14.75
2019-03-26T21:05:07.785Z,19.45
2019-03-26T21:07:37.698Z,16.80
2019-03-26T21:10:07.290Z,27.27
2019-03-26T21:12:35.769Z,25.68
2019-03-26T21:15:08.723Z,27.82
2019-03-26T21:17:37.864Z,24.00
2019-03-26T21:20:09.110Z,19.95
2019-03-26T21:25:06.455Z,14.65
2019-03-26T21:27:34.984Z,16.15
2019-03-26T21:30:11.458Z,14.28
2019-03-26T21:32:35.779Z,15.28
2019-03-26T21:35:05.517Z,13.20
2019-03-26T21:37:34.116Z,14.65
2019-03-26T21:40:02.707Z,14.15
2019-03-26T21:42:31.209Z,15.13
2019-03-26T21:44:59.791Z,13.85
2019-03-26T21:47:28.321Z,13.43
2019-03-26T21:49:56.819Z,15.60
2019-03-26T21:52:25.449Z,15.10
2019-03-26T21:54:53.955Z,17.85
2019-03-26T21:57:22.505Z,14.33
2019-03-26T21:59:51.207Z,10.65
2019-03-26T22:02:19.742Z,12.80
2019-03-26T22:04:48.290Z,9.93
2019-03-26T22:07:16.740Z,11.73
2019-03-26T22:09:45.337Z,15.18
2019-03-26T22:12:14.099Z,12.78
2019-03-26T22:14:42.609Z,10.78
2019-03-26T22:17:11.541Z,13.48
2019-03-26T22:19:39.995Z,14.83
2019-03-26T22:22:08.486Z,14.85
2019-03-26T22:24:38.172Z,14.70
2019-03-26T22:27:06.703Z,14.78
2019-03-26T22:29:35.190Z,17.77
2019-03-26T22:32:03.967Z,15.72
2019-03-26T22:34:32.546Z,13.48
2019-03-26T22:37:01.038Z,14.63
2019-03-26T22:39:29.594Z,12.75
2019-03-26T22:41:58.223Z,12.45
2019-03-26T22:44:31.584Z,13.30
2019-03-26T22:46:56.847Z,20.50
2019-03-26T22:49:25.491Z,16.27
2019-03-26T22:51:54.241Z,14.83
2019-03-26T22:54:22.707Z,16.65
2019-03-26T22:56:51.274Z,23.95
2019-03-26T22:59:19.800Z,24.63
2019-03-26T23:01:48.281Z,15.48
2019-03-26T23:04:19.789Z,23.70
2019-03-26T23:06:47.021Z,19.62
2019-03-26T23:09:15.603Z,17.92
2019-03-26T23:11:44.172Z,13.18
2019-03-26T23:14:12.662Z,17.45
2019-03-26T23:16:41.109Z,18.25
2019-03-26T23:19:09.748Z,15.10
2019-03-26T23:21:38.243Z,16.17
2019-03-26T23:24:07.088Z,15.90
2019-03-26T23:26:35.630Z,20.20
2019-03-26T23:29:04.300Z,14.85
2019-03-26T23:31:32.846Z,16.10
2019-03-26T23:34:01.326Z,16.70
2019-03-26T23:36:29.790Z,13.48
2019-03-26T23:38:58.326Z,14.75
2019-03-26T23:41:26.843Z,15.25
2019-03-26T23:43:55.322Z,14.43
2019-03-26T23:46:23.965Z,14.80
2019-03-26T23:48:52.520Z,12.40
2019-03-26T23:51:20.968Z,13.10
2019-03-26T23:53:49.758Z,13.60
2019-03-26T23:56:18.258Z,16.62
2019-03-26T23:58:46.763Z,16.50
